createdAt,value
2019-01-09T00:00:59.253Z,98294.00
2019-01-09T00:03:28.321Z,98298.00
2019-01-09T00:05:57.691Z,98299.00
2019-01-09T00:08:26.889Z,98294.00
2019-01-09T00:10:56.087Z,98300.00
2019-01-09T00:13:25.450Z,98300.00
2019-01-09T00:15:54.630Z,98305.00
2019-01-09T00:18:23.985Z,98295.00
2019-01-09T00:20:53.119Z,98296.00
2019-01-09T00:23:22.189Z,98297.00
2019-01-09T00:25:51.557Z,98297.00
2019-01-09T00:28:20.678Z,98311.00
2019-01-09T00:30:50.053Z,98298.00
2019-01-09T00:33:19.132Z,98301.00
2019-01-09T00:35:48.219Z,98310.00
2019-01-09T00:38:17.301Z,98309.00
2019-01-09T00:40:46.658Z,98297.00
2019-01-09T00:43:15.765Z,98309.00
2019-01-09T00:45:45.189Z,98297.00
2019-01-09T00:48:14.558Z,98303.00
2019-01-09T00:50:43.701Z,98309.00
2019-01-09T00:53:12.813Z,98318.00
2019-01-09T00:55:41.929Z,98308.00
2019-01-09T00:58:11.367Z,98310.00
2019-01-09T01:00:40.792Z,98314.00
2019-01-09T01:03:24.671Z,98309.00
2019-01-09T01:06:19.424Z,98314.00
2019-01-09T01:09:08.172Z,98315.00
2019-01-09T01:11:47.642Z,98317.00
2019-01-09T01:14:38.336Z,98316.00
2019-01-09T01:17:22.576Z,98327.00
2019-01-09T01:20:12.772Z,98326.00
2019-01-09T01:23:20.076Z,98332.00
2019-01-09T01:25:57.987Z,98329.00
2019-01-09T01:28:40.489Z,98323.00
2019-01-09T01:31:35.385Z,98330.00
2019-01-09T01:34:25.627Z,98331.00
2019-01-09T01:37:00.389Z,98319.00
2019-01-09T01:39:48.820Z,98335.00
2019-01-09T01:42:28.536Z,98332.00
2019-01-09T01:45:18.871Z,98329.00
2019-01-09T01:48:09.399Z,98330.00
2019-01-09T01:51:02.121Z,98335.00
2019-01-09T01:53:36.199Z,98335.00
2019-01-09T01:56:26.843Z,98336.00
2019-01-09T01:59:00.883Z,98348.00
2019-01-09T02:02:01.583Z,98347.00
2019-01-09T02:04:46.846Z,98337.00
2019-01-09T02:07:56.165Z,98347.00
2019-01-09T02:10:51.015Z,98355.00
2019-01-09T02:13:39.342Z,98359.00
2019-01-09T02:16:47.554Z,98350.00
2019-01-09T02:19:21.600Z,98360.00
2019-01-09T02:22:27.073Z,98355.00
2019-01-09T02:25:30.070Z,98372.00
2019-01-09T02:28:22.181Z,98360.00
2019-01-09T02:31:11.012Z,98356.00
2019-01-09T02:33:40.397Z,98354.00
2019-01-09T02:36:13.672Z,98361.00
2019-01-09T02:38:40.650Z,98362.00
2019-01-09T02:41:09.728Z,98348.00
2019-01-09T02:43:39.095Z,98353.00
2019-01-09T02:46:08.209Z,98355.00
2019-01-09T02:48:37.604Z,98354.00
2019-01-09T02:51:06.680Z,98358.00
2019-01-09T02:53:35.770Z,98355.00
2019-01-09T02:56:04.866Z,98364.00
2019-01-09T02:58:34.226Z,98361.00
2019-01-09T03:01:03.667Z,98360.00
2019-01-09T03:03:32.749Z,98350.00
2019-01-09T03:06:02.127Z,98349.00
2019-01-09T03:08:31.465Z,98358.00
2019-01-09T03:11:00.579Z,98363.00
2019-01-09T03:13:29.664Z,98358.00
2019-01-09T03:15:58.786Z,98352.00
2019-01-09T03:18:27.889Z,98361.00
2019-01-09T03:20:57.365Z,98351.00
2019-01-09T03:23:26.712Z,98353.00
2019-01-09T03:25:55.828Z,98364.00
2019-01-09T03:28:24.918Z,98354.00
2019-01-09T03:30:54.291Z,98368.00
2019-01-09T03:33:23.648Z,98358.00
2019-01-09T03:35:52.792Z,98357.00
2019-01-09T03:38:22.124Z,98374.00
2019-01-09T03:40:51.323Z,98367.00
2019-01-09T03:43:20.644Z,98360.00
2019-01-09T03:45:49.744Z,98361.00
2019-01-09T03:48:19.108Z,98360.00
2019-01-09T03:50:48.234Z,98369.00
2019-01-09T03:53:17.306Z,98365.00
2019-01-09T03:55:46.415Z,98367.00
2019-01-09T03:58:15.492Z,98359.00
2019-01-09T04:00:44.877Z,98366.00
2019-01-09T04:03:13.948Z,98380.00
2019-01-09T04:05:43.314Z,98374.00
2019-01-09T04:08:12.733Z,98386.00
2019-01-09T04:10:41.903Z,98378.00
2019-01-09T04:13:11.008Z,98380.00
2019-01-09T04:15:40.213Z,98382.00
2019-01-09T04:18:09.337Z,98392.00
2019-01-09T04:20:38.695Z,98376.00
2019-01-09T04:23:07.807Z,98388.00
2019-01-09T04:25:37.190Z,98390.00
2019-01-09T04:28:06.306Z,98389.00
2019-01-09T04:30:35.410Z,98392.00
2019-01-09T04:33:04.526Z,98386.00
2019-01-09T04:35:33.900Z,98396.00
2019-01-09T04:38:03.239Z,98391.00
2019-01-09T04:40:32.345Z,98400.00
2019-01-09T04:43:01.424Z,98392.00
2019-01-09T04:45:30.550Z,98397.00
2019-01-09T04:47:59.638Z,98397.00
2019-01-09T04:50:28.719Z,98397.00
2019-01-09T04:52:57.804Z,98397.00
2019-01-09T04:55:26.898Z,98402.00
2019-01-09T04:57:56.243Z,98399.00
2019-01-09T05:00:25.746Z,98406.00
2019-01-09T05:02:54.858Z,98407.00
2019-01-09T05:05:24.206Z,98418.00
2019-01-09T05:07:53.308Z,98413.00
2019-01-09T05:10:22.386Z,98406.00
2019-01-09T05:12:51.532Z,98411.00
2019-01-09T05:15:21.265Z,98418.00
2019-01-09T05:17:50.626Z,98413.00
2019-01-09T05:20:19.735Z,98422.00
2019-01-09T05:22:48.861Z,98426.00
2019-01-09T05:25:18.199Z,98421.00
2019-01-09T05:27:47.308Z,98432.00
2019-01-09T05:30:16.403Z,98436.00
2019-01-09T05:32:45.519Z,98431.00
2019-01-09T05:35:14.842Z,98433.00
2019-01-09T05:37:44.030Z,98436.00
2019-01-09T05:40:13.143Z,98449.00
2019-01-09T05:42:42.287Z,98452.00
2019-01-09T05:45:11.402Z,98451.00
2019-01-09T05:47:40.759Z,98468.00
2019-01-09T05:50:09.844Z,98461.00
2019-01-09T05:52:39.235Z,98461.00
2019-01-09T05:55:08.343Z,98464.00
2019-01-09T05:57:37.723Z,98455.00
2019-01-09T06:00:09.307Z,98463.00
2019-01-09T06:02:38.404Z,98467.00
2019-01-09T06:05:07.916Z,98472.00
2019-01-09T06:07:37.275Z,98476.00
2019-01-09T06:10:07.628Z,98484.00
2019-01-09T06:12:36.767Z,98485.00
2019-01-09T06:15:07.249Z,98478.00
2019-01-09T06:17:36.596Z,98475.00
2019-01-09T06:20:07.264Z,98482.00
2019-01-09T06:22:36.359Z,98491.00
2019-01-09T06:25:06.665Z,98476.00
2019-01-09T06:27:36.009Z,98481.00
2019-01-09T06:30:05.959Z,98498.00
2019-01-09T06:32:35.078Z,98492.00
2019-01-09T06:35:04.489Z,98499.00
2019-01-09T06:37:33.611Z,98491.00
2019-01-09T06:40:03.042Z,98497.00
2019-01-09T06:42:32.395Z,98500.00
2019-01-09T06:45:01.505Z,98515.00
2019-01-09T06:47:30.847Z,98511.00
2019-01-09T06:49:59.933Z,98509.00
2019-01-09T06:52:29.273Z,98515.00
2019-01-09T06:54:58.356Z,98515.00
2019-01-09T06:57:27.494Z,98509.00
2019-01-09T06:59:56.856Z,98519.00
2019-01-09T07:02:25.940Z,98527.00
2019-01-09T07:04:55.284Z,98528.00
2019-01-09T07:07:24.650Z,98534.00
2019-01-09T07:09:53.728Z,98537.00
2019-01-09T07:12:23.102Z,98539.00
2019-01-09T07:14:52.184Z,98534.00
2019-01-09T07:17:21.545Z,98545.00
2019-01-09T07:19:50.625Z,98526.00
2019-01-09T07:22:19.994Z,98539.00
2019-01-09T07:24:49.087Z,98536.00
2019-01-09T07:27:18.170Z,98558.00
2019-01-09T07:29:47.537Z,98542.00
2019-01-09T07:32:17.493Z,98548.00
2019-01-09T07:34:46.605Z,98550.00
2019-01-09T07:37:15.697Z,98557.00
2019-01-09T07:39:47.048Z,98553.00
2019-01-09T07:42:16.177Z,98558.00
2019-01-09T07:44:45.399Z,98562.00
2019-01-09T07:47:14.519Z,98567.00
2019-01-09T07:49:43.964Z,98570.00
2019-01-09T07:52:13.686Z,98573.00
2019-01-09T07:54:42.876Z,98581.00
2019-01-09T07:57:12.497Z,98564.00
2019-01-09T07:59:41.682Z,98573.00
2019-01-09T08:02:11.040Z,98573.00
2019-01-09T08:04:40.395Z,98589.00
2019-01-09T08:07:09.527Z,98584.00
2019-01-09T08:09:38.900Z,98586.00
2019-01-09T08:12:08.235Z,98582.00
2019-01-09T08:14:37.375Z,98579.00
2019-01-09T08:17:06.707Z,98589.00
2019-01-09T08:19:35.809Z,98585.00
2019-01-09T08:22:05.165Z,98600.00
2019-01-09T08:24:34.529Z,98596.00
2019-01-09T08:27:03.647Z,98613.00
2019-01-09T08:29:33.010Z,98610.00
2019-01-09T08:32:02.172Z,98609.00
2019-01-09T08:34:31.540Z,98611.00
2019-01-09T08:37:00.875Z,98631.00
2019-01-09T08:39:29.991Z,98616.00
2019-01-09T08:41:59.406Z,98620.00
2019-01-09T08:44:28.514Z,98621.00
2019-01-09T08:46:57.592Z,98623.00
2019-01-09T08:49:27.044Z,98636.00
2019-01-09T08:51:56.129Z,98635.00
2019-01-09T08:54:25.496Z,98634.00
2019-01-09T08:56:54.577Z,98641.00
2019-01-09T08:59:23.943Z,98637.00
2019-01-09T09:01:53.024Z,98640.00
2019-01-09T09:04:22.112Z,98643.00
2019-01-09T09:06:51.466Z,98645.00
2019-01-09T09:09:20.608Z,98656.00
2019-01-09T09:11:49.945Z,98650.00
2019-01-09T09:14:19.008Z,98662.00
2019-01-09T09:16:48.363Z,98659.00
2019-01-09T09:19:17.696Z,98671.00
2019-01-09T09:21:46.781Z,98656.00
2019-01-09T09:24:15.876Z,98666.00
2019-01-09T09:26:44.978Z,98660.00
2019-01-09T09:29:14.325Z,98666.00
2019-01-09T09:31:43.689Z,98669.00
2019-01-09T09:34:12.765Z,98672.00
2019-01-09T09:36:42.114Z,98679.00
2019-01-09T09:39:11.244Z,98681.00
2019-01-09T09:41:40.629Z,98681.00
2019-01-09T09:44:09.730Z,98683.00
2019-01-09T09:46:38.814Z,98697.00
2019-01-09T09:49:07.977Z,98694.00
2019-01-09T09:51:37.359Z,98696.00
2019-01-09T09:54:06.457Z,98712.00
2019-01-09T09:56:35.568Z,98693.00
2019-01-09T09:59:04.766Z,98706.00
2019-01-09T10:01:33.866Z,98711.00
2019-01-09T10:04:03.197Z,98700.00
2019-01-09T10:06:32.578Z,98714.00
2019-01-09T10:09:01.677Z,98705.00
2019-01-09T10:11:30.789Z,98719.00
2019-01-09T10:13:59.873Z,98716.00
2019-01-09T10:16:29.229Z,98712.00
2019-01-09T10:18:59.393Z,98714.00
2019-01-09T10:21:28.534Z,98716.00
2019-01-09T10:23:57.704Z,98725.00
2019-01-09T10:26:26.839Z,98725.00
2019-01-09T10:28:55.925Z,98727.00
2019-01-09T10:31:25.270Z,98727.00
2019-01-09T10:33:54.351Z,98727.00
2019-01-09T10:36:23.738Z,98720.00
2019-01-09T10:38:52.922Z,98721.00
2019-01-09T10:41:22.255Z,98730.00
2019-01-09T10:43:51.359Z,98723.00
2019-01-09T10:46:20.445Z,98732.00
2019-01-09T10:48:49.536Z,98730.00
2019-01-09T10:51:18.658Z,98733.00
2019-01-09T10:53:47.749Z,98733.00
2019-01-09T10:56:16.829Z,98729.00
2019-01-09T10:58:46.205Z,98731.00
2019-01-09T11:01:15.281Z,98726.00
2019-01-09T11:03:44.389Z,98729.00
2019-01-09T11:06:14.597Z,98724.00
2019-01-09T11:08:47.149Z,98722.00
2019-01-09T11:11:14.885Z,98724.00
2019-01-09T11:13:43.971Z,98731.00
2019-01-09T11:16:13.059Z,98719.00
2019-01-09T11:18:42.169Z,98734.00
2019-01-09T11:21:11.271Z,98732.00
2019-01-09T11:23:40.355Z,98723.00
2019-01-09T11:26:09.470Z,98732.00
2019-01-09T11:28:38.833Z,98726.00
2019-01-09T11:31:08.153Z,98724.00
2019-01-09T11:33:37.516Z,98735.00
2019-01-09T11:36:06.872Z,98738.00
2019-01-09T11:38:35.952Z,98737.00
2019-01-09T11:41:05.705Z,98732.00
2019-01-09T11:43:35.063Z,98736.00
2019-01-09T11:46:04.213Z,98747.00
2019-01-09T11:48:33.664Z,98738.00
2019-01-09T11:51:02.781Z,98740.00
2019-01-09T11:53:31.900Z,98748.00
2019-01-09T11:56:01.231Z,98737.00
2019-01-09T11:58:30.362Z,98745.00
2019-01-09T12:00:59.715Z,98747.00
2019-01-09T12:03:29.075Z,98752.00
2019-01-09T12:05:58.185Z,98753.00
2019-01-09T12:08:27.538Z,98750.00
2019-01-09T12:10:56.682Z,98755.00
2019-01-09T12:13:26.078Z,98751.00
2019-01-09T12:15:55.407Z,98763.00
2019-01-09T12:18:24.495Z,98762.00
2019-01-09T12:20:53.577Z,98764.00
2019-01-09T12:23:22.684Z,98766.00
2019-01-09T12:25:51.774Z,98766.00
2019-01-09T12:28:20.897Z,98773.00
2019-01-09T12:30:50.270Z,98777.00
2019-01-09T12:33:19.630Z,98782.00
2019-01-09T12:35:48.758Z,98781.00
2019-01-09T12:38:18.131Z,98787.00
2019-01-09T12:40:47.209Z,98793.00
2019-01-09T12:43:16.558Z,98787.00
2019-01-09T12:45:45.649Z,98792.00
2019-01-09T12:48:14.986Z,98805.00
2019-01-09T12:50:44.073Z,98806.00
2019-01-09T12:53:13.440Z,98810.00
2019-01-09T12:55:48.325Z,98811.00
2019-01-09T12:58:17.434Z,98814.00
2019-01-09T13:00:46.812Z,98826.00
2019-01-09T13:03:15.918Z,98819.00
2019-01-09T13:05:45.285Z,98822.00
2019-01-09T13:08:14.349Z,98827.00
2019-01-09T13:10:44.105Z,98831.00
2019-01-09T13:13:13.191Z,98834.00
2019-01-09T13:15:42.286Z,98830.00
2019-01-09T13:18:11.368Z,98834.00
2019-01-09T13:20:40.482Z,98841.00
2019-01-09T13:23:11.277Z,98836.00
2019-01-09T13:25:40.425Z,98849.00
2019-01-09T13:28:09.767Z,98848.00
2019-01-09T13:30:39.149Z,98850.00
2019-01-09T13:33:08.256Z,98852.00
2019-01-09T13:35:37.357Z,98863.00
2019-01-09T13:38:06.462Z,98844.00
2019-01-09T13:40:35.815Z,98861.00
2019-01-09T13:43:04.888Z,98863.00
2019-01-09T13:45:34.249Z,98874.00
2019-01-09T13:48:03.326Z,98883.00
2019-01-09T13:50:32.437Z,98876.00
2019-01-09T13:53:01.555Z,98877.00
2019-01-09T13:55:30.633Z,98880.00
2019-01-09T13:58:00.009Z,98882.00
2019-01-09T14:00:29.122Z,98888.00
2019-01-09T14:02:58.234Z,98891.00
2019-01-09T14:05:27.348Z,98889.00
2019-01-09T14:07:56.711Z,98901.00
2019-01-09T14:10:26.561Z,98899.00
2019-01-09T14:12:55.673Z,98898.00
2019-01-09T14:15:24.762Z,98908.00
2019-01-09T14:17:54.158Z,98912.00
2019-01-09T14:20:23.272Z,98909.00
2019-01-09T14:22:52.637Z,98921.00
2019-01-09T14:25:21.707Z,98931.00
2019-01-09T14:27:51.077Z,98930.00
2019-01-09T14:30:22.774Z,98939.00
2019-01-09T14:32:51.898Z,98936.00
2019-01-09T14:35:21.301Z,98928.00
2019-01-09T14:37:50.637Z,98947.00
2019-01-09T14:40:20.755Z,98941.00
2019-01-09T14:42:49.849Z,98933.00
2019-01-09T14:45:19.566Z,98949.00
2019-01-09T14:47:48.964Z,98950.00
2019-01-09T14:50:22.957Z,98962.00
2019-01-09T14:52:52.392Z,98950.00
2019-01-09T14:55:22.078Z,98965.00
2019-01-09T14:57:51.981Z,98954.00
2019-01-09T15:00:24.261Z,98962.00
2019-01-09T15:02:53.666Z,98972.00
2019-01-09T15:05:22.858Z,98974.00
2019-01-09T15:07:52.276Z,98978.00
2019-01-09T15:10:28.223Z,98980.00
2019-01-09T15:12:58.092Z,98985.00
2019-01-09T15:15:27.585Z,98982.00
2019-01-09T15:17:56.694Z,98991.00
2019-01-09T15:20:25.794Z,98996.00
2019-01-09T15:22:54.911Z,99000.00
2019-01-09T15:25:24.276Z,98997.00
2019-01-09T15:27:53.365Z,99009.00
2019-01-09T15:30:26.764Z,98993.00
2019-01-09T15:32:56.132Z,99008.00
2019-01-09T15:35:25.287Z,99018.00
2019-01-09T15:37:54.674Z,99015.00
2019-01-09T15:40:27.161Z,99016.00
2019-01-09T15:42:56.562Z,99018.00
2019-01-09T15:45:26.033Z,99028.00
2019-01-09T15:47:55.186Z,99015.00
2019-01-09T15:50:27.453Z,99031.00
2019-01-09T15:52:56.827Z,99027.00
2019-01-09T15:55:25.937Z,99036.00
2019-01-09T15:57:55.326Z,99038.00
2019-01-09T16:00:31.805Z,99039.00
2019-01-09T16:03:01.750Z,99044.00
2019-01-09T16:05:33.523Z,99047.00
2019-01-09T16:08:03.509Z,99052.00
2019-01-09T16:10:32.869Z,99061.00
2019-01-09T16:13:02.304Z,99061.00
2019-01-09T16:15:31.931Z,99063.00
2019-01-09T16:18:01.293Z,99067.00
2019-01-09T16:20:30.371Z,99064.00
2019-01-09T16:22:59.481Z,99070.00
2019-01-09T16:25:28.615Z,99073.00
2019-01-09T16:27:57.937Z,99072.00
2019-01-09T16:30:39.234Z,99061.00
2019-01-09T16:33:08.342Z,99084.00
2019-01-09T16:35:38.722Z,99076.00
2019-01-09T16:38:08.082Z,99085.00
2019-01-09T16:40:37.391Z,99081.00
2019-01-09T16:43:06.529Z,99087.00
2019-01-09T16:45:35.611Z,99088.00
2019-01-09T16:48:05.370Z,99094.00
2019-01-09T16:50:34.456Z,99094.00
2019-01-09T16:53:03.801Z,99103.00
2019-01-09T16:55:32.878Z,99093.00
2019-01-09T16:58:02.222Z,99100.00
2019-01-09T17:00:34.167Z,99105.00
2019-01-09T17:03:03.261Z,99100.00
2019-01-09T17:05:32.619Z,99106.00
2019-01-09T17:08:02.051Z,99110.00
2019-01-09T17:10:32.742Z,99116.00
2019-01-09T17:13:02.478Z,99120.00
2019-01-09T17:15:31.594Z,99112.00
2019-01-09T17:18:01.678Z,99109.00
2019-01-09T17:20:32.317Z,99117.00
2019-01-09T17:23:01.408Z,99119.00
2019-01-09T17:25:30.505Z,99125.00
2019-01-09T17:27:59.602Z,99128.00
2019-01-09T17:30:31.473Z,99140.00
2019-01-09T17:33:00.590Z,99142.00
2019-01-09T17:35:30.157Z,99141.00
2019-01-09T17:37:59.457Z,99144.00
2019-01-09T17:40:28.587Z,99162.00
2019-01-09T17:42:57.942Z,99155.00
2019-01-09T17:45:27.395Z,99152.00
2019-01-09T17:47:56.783Z,99151.00
2019-01-09T17:50:31.577Z,99169.00
2019-01-09T17:53:01.038Z,99168.00
2019-01-09T17:55:30.145Z,99170.00
2019-01-09T17:57:59.273Z,99174.00
2019-01-09T18:00:33.670Z,99175.00
2019-01-09T18:03:02.982Z,99179.00
2019-01-09T18:05:32.338Z,99182.00
2019-01-09T18:08:10.132Z,99187.00
2019-01-09T18:10:32.460Z,99187.00
2019-01-09T18:13:01.544Z,99187.00
2019-01-09T18:15:31.023Z,99181.00
2019-01-09T18:18:00.355Z,99190.00
2019-01-09T18:20:29.724Z,99189.00
2019-01-09T18:22:58.830Z,99200.00
2019-01-09T18:25:29.791Z,99206.00
2019-01-09T18:27:58.930Z,99203.00
2019-01-09T18:30:38.635Z,99194.00
2019-01-09T18:33:18.476Z,99220.00
2019-01-09T18:36:21.227Z,99206.00
2019-01-09T18:38:59.914Z,99214.00
2019-01-09T18:41:50.330Z,99224.00
2019-01-09T18:44:22.603Z,99221.00
2019-01-09T18:47:10.912Z,99232.00
2019-01-09T18:49:48.901Z,99231.00
2019-01-09T18:52:43.307Z,99245.00
2019-01-09T18:55:12.476Z,99242.00
2019-01-09T18:57:41.610Z,99240.00
2019-01-09T19:00:19.815Z,99245.00
2019-01-09T19:02:49.014Z,99254.00
2019-01-09T19:05:18.289Z,99260.00
2019-01-09T19:07:47.730Z,99265.00
2019-01-09T19:10:19.718Z,99266.00
2019-01-09T19:12:50.555Z,99274.00
2019-01-09T19:15:19.893Z,99279.00
2019-01-09T19:17:49.245Z,99272.00
2019-01-09T19:20:18.450Z,99273.00
2019-01-09T19:22:47.625Z,99289.00
2019-01-09T19:25:17.334Z,99272.00
2019-01-09T19:27:46.874Z,99287.00
2019-01-09T19:30:27.088Z,99297.00
2019-01-09T19:32:56.239Z,99298.00
2019-01-09T19:35:25.345Z,99307.00
2019-01-09T19:37:54.470Z,99307.00
2019-01-09T19:40:23.572Z,99317.00
2019-01-09T19:42:52.763Z,99314.00
2019-01-09T19:45:21.904Z,99313.00
2019-01-09T19:47:51.095Z,99329.00
2019-01-09T19:50:22.377Z,99328.00
2019-01-09T19:52:52.515Z,99343.00
2019-01-09T19:55:21.750Z,99339.00
2019-01-09T19:57:50.879Z,99332.00
2019-01-09T20:00:23.913Z,99344.00
2019-01-09T20:02:53.094Z,99340.00
2019-01-09T20:05:22.612Z,99340.00
2019-01-09T20:07:52.069Z,99348.00
2019-01-09T20:10:23.998Z,99352.00
2019-01-09T20:12:53.429Z,99359.00
2019-01-09T20:15:22.611Z,99347.00
2019-01-09T20:17:51.772Z,99355.00
2019-01-09T20:20:21.457Z,99353.00
2019-01-09T20:22:51.145Z,99365.00
2019-01-09T20:25:20.323Z,99369.00
2019-01-09T20:27:49.533Z,99367.00
2019-01-09T20:30:25.735Z,99370.00
2019-01-09T20:32:55.158Z,99376.00
2019-01-09T20:35:24.655Z,99371.00
2019-01-09T20:37:53.769Z,99385.00
2019-01-09T20:40:22.842Z,99391.00
2019-01-09T20:42:51.938Z,99397.00
2019-01-09T20:45:21.538Z,99399.00
2019-01-09T20:47:50.642Z,99398.00
2019-01-09T20:50:23.121Z,99409.00
2019-01-09T20:52:52.244Z,99410.00
2019-01-09T20:55:21.553Z,99402.00
2019-01-09T20:57:51.436Z,99417.00
2019-01-09T21:00:25.473Z,99418.00
2019-01-09T21:02:56.129Z,99422.00
2019-01-09T21:05:30.899Z,99427.00
2019-01-09T21:08:00.377Z,99435.00
2019-01-09T21:10:29.754Z,99434.00
2019-01-09T21:12:58.836Z,99438.00
2019-01-09T21:15:28.049Z,99440.00
2019-01-09T21:17:57.470Z,99447.00
2019-01-09T21:20:26.832Z,99440.00
2019-01-09T21:22:56.236Z,99443.00
2019-01-09T21:25:25.645Z,99452.00
2019-01-09T21:27:54.748Z,99457.00
2019-01-09T21:30:26.330Z,99447.00
2019-01-09T21:32:56.082Z,99447.00
2019-01-09T21:35:25.206Z,99461.00
2019-01-09T21:37:54.591Z,99466.00
2019-01-09T21:40:27.134Z,99460.00
2019-01-09T21:42:56.215Z,99465.00
2019-01-09T21:45:25.337Z,99468.00
2019-01-09T21:47:54.949Z,99467.00
2019-01-09T21:50:24.695Z,99480.00
2019-01-09T21:52:53.875Z,99475.00
2019-01-09T21:55:22.948Z,99483.00
2019-01-09T21:57:52.068Z,99481.00
2019-01-09T22:00:27.143Z,99488.00
2019-01-09T22:02:56.668Z,99491.00
2019-01-09T22:05:25.897Z,99484.00
2019-01-09T22:07:55.348Z,99495.00
2019-01-09T22:10:31.640Z,99500.00
2019-01-09T22:13:01.063Z,99501.00
2019-01-09T22:15:30.169Z,99507.00
2019-01-09T22:17:59.599Z,99506.00
2019-01-09T22:20:28.962Z,99520.00
2019-01-09T22:22:58.308Z,99525.00
2019-01-09T22:25:27.677Z,99518.00
2019-01-09T22:27:56.764Z,99517.00
2019-01-09T22:30:28.013Z,99518.00
2019-01-09T22:32:57.426Z,99520.00
2019-01-09T22:35:26.503Z,99520.00
2019-01-09T22:37:55.883Z,99520.00
2019-01-09T22:40:25.234Z,99530.00
2019-01-09T22:42:54.327Z,99523.00
2019-01-09T22:45:23.420Z,99525.00
2019-01-09T22:47:52.542Z,99532.00
2019-01-09T22:50:23.318Z,99529.00
2019-01-09T22:52:52.486Z,99531.00
2019-01-09T22:55:21.922Z,99536.00
2019-01-09T22:57:51.033Z,99534.00
2019-01-09T23:00:49.138Z,99539.00
2019-01-09T23:03:18.567Z,99535.00
2019-01-09T23:05:48.008Z,99544.00
2019-01-09T23:08:17.122Z,99538.00
2019-01-09T23:10:54.269Z,99548.00
2019-01-09T23:13:17.532Z,99555.00
2019-01-09T23:15:46.950Z,99544.00
2019-01-09T23:18:16.313Z,99549.00
2019-01-09T23:20:45.433Z,99567.00
2019-01-09T23:23:15.376Z,99570.00
2019-01-09T23:25:44.489Z,99576.00
2019-01-09T23:28:13.564Z,99569.00
2019-01-09T23:30:43.072Z,99578.00
2019-01-09T23:33:12.419Z,99576.00
2019-01-09T23:35:41.849Z,99581.00
2019-01-09T23:38:10.968Z,99581.00
2019-01-09T23:40:40.094Z,99586.00
2019-01-09T23:43:09.205Z,99593.00
2019-01-09T23:45:38.365Z,99591.00
2019-01-09T23:48:07.498Z,99595.00
2019-01-09T23:50:36.648Z,99595.00
2019-01-09T23:53:05.761Z,99593.00
2019-01-09T23:55:35.492Z,99595.00
2019-01-09T23:58:04.623Z,99595.00
